Time;durP1;ratioP1;P1;durP2;ratioP2;P2;SDS_P1;SDS_P2;PMS_P1;PMS_P2;Temp;Humidity;BMP_temperature;BMP_pressure;BME280_temperature;BME280_humidity;BME280_pressure;Samples;Min_cycle;Max_cycle;Signal;HPM_P1;HPM_P2
2023/05/18 00:01:52;;;;;;;13.93;5.87;;;;;;;14.08;52.31;100971.83;1645913;87;21228;-55
2023/05/18 00:05:00;;;;;;;9.08;5.83;;;;;;;14.04;52.25;100971.84;1651933;82;21227;-55
2023/05/18 00:08:08;;;;;;;10.68;5.83;;;;;;;13.99;52.23;100975.16;1657697;85;21215;-55
2023/05/18 00:11:16;;;;;;;10.80;5.05;;;;;;;13.96;52.30;100967.77;1657636;86;21354;-54
2023/05/18 00:14:22;;;;;;;13.28;5.15;;;;;;;13.93;52.37;100969.52;1657682;85;21638;-54
2023/05/18 00:17:30;;;;;;;10.55;5.97;;;;;;;13.93;52.45;100966.77;1651108;86;22114;-56
2023/05/18 00:20:36;;;;;;;9.95;5.10;;;;;;;13.91;52.48;100968.84;1657758;85;21247;-55
2023/05/18 00:23:48;;;;;;;13.15;5.50;;;;;;;13.88;52.46;100959.06;1657745;85;21227;-56
2023/05/18 00:26:53;;;;;;;9.08;5.15;;;;;;;13.83;52.35;100957.88;1657710;86;21199;-55
2023/05/18 00:29:58;;;;;;;11.00;5.62;;;;;;;13.75;52.42;100956.05;1650898;86;21266;-55
2023/05/18 00:33:04;;;;;;;7.90;5.28;;;;;;;13.74;52.51;100946.61;1638047;85;21314;-55
2023/05/18 00:36:10;;;;;;;7.78;5.33;;;;;;;13.73;52.58;100938.86;1657667;86;21207;-55
2023/05/18 00:39:16;;;;;;;12.15;4.97;;;;;;;13.72;52.63;100940.42;1651046;86;21771;-55
2023/05/18 00:42:23;;;;;;;9.88;5.10;;;;;;;13.69;52.58;100932.53;1657624;85;21239;-55
2023/05/18 00:45:29;;;;;;;11.43;4.83;;;;;;;13.66;52.65;100929.64;1657727;86;21354;-54
2023/05/18 00:48:35;;;;;;;10.15;5.37;;;;;;;13.63;52.65;100925.02;1650925;86;21269;-56
2023/05/18 00:51:40;;;;;;;10.03;4.95;;;;;;;13.61;52.75;100932.08;1657647;86;21699;-56
2023/05/18 00:54:49;;;;;;;9.35;5.08;;;;;;;13.61;52.84;100922.45;1657703;85;21283;-55
2023/05/18 00:57:55;;;;;;;10.90;5.95;;;;;;;13.58;52.90;100924.19;1651113;85;21222;-55
2023/05/18 01:01:04;;;;;;;8.20;5.10;;;;;;;13.58;52.91;100921.95;1657484;86;21262;-55
2023/05/18 01:04:12;;;;;;;8.20;5.00;;;;;;;13.56;52.95;100922.13;1657354;83;21468;-55
2023/05/18 01:07:25;;;;;;;11.03;4.53;;;;;;;13.54;52.97;100929.19;1645903;86;21357;-55
2023/05/18 01:10:28;;;;;;;8.40;4.35;;;;;;;13.53;53.03;100922.50;1645862;87;21255;-54
2023/05/18 01:14:02;;;;;;;8.70;4.78;;;;;;;13.50;53.01;100926.48;1646050;86;21429;-55
2023/05/18 01:17:15;;;;;;;9.35;4.35;;;;;;;13.46;52.99;100920.16;1640976;86;21227;-55
2023/05/18 01:20:48;;;;;;;10.58;5.33;;;;;;;13.43;53.10;100924.11;1646261;87;21212;-55
2023/05/18 01:24:02;;;;;;;9.73;4.55;;;;;;;13.40;53.13;100924.47;1646037;86;21855;-55
2023/05/18 01:27:08;;;;;;;9.13;5.15;;;;;;;13.34;53.12;100922.45;1645853;86;21273;-55
2023/05/18 01:30:16;;;;;;;10.75;5.22;;;;;;;13.31;53.22;100929.69;1645795;86;21295;-55
2023/05/18 01:33:23;;;;;;;6.97;4.80;;;;;;;13.28;53.24;100930.56;1645779;86;21244;-55
2023/05/18 01:36:31;;;;;;;8.83;4.53;;;;;;;13.24;53.32;100927.30;1645950;87;21437;-55
2023/05/18 01:39:37;;;;;;;7.72;4.50;;;;;;;13.22;53.39;100926.62;1645685;86;21228;-54
2023/05/18 01:42:50;;;;;;;6.60;4.40;;;;;;;13.20;53.45;100927.84;1628262;86;21219;-55
2023/05/18 01:45:56;;;;;;;8.35;4.65;;;;;;;13.18;53.53;100922.53;1646171;86;21315;-54
2023/05/18 01:49:07;;;;;;;13.03;4.87;;;;;;;13.17;53.58;100932.34;1645908;86;21890;-55
2023/05/18 01:52:20;;;;;;;9.20;4.95;;;;;;;13.18;53.67;100935.41;1645884;87;21199;-54
2023/05/18 01:55:21;;;;;;;9.93;5.28;;;;;;;13.16;53.74;100936.13;1645775;87;21196;-54
2023/05/18 01:58:27;;;;;;;10.32;5.03;;;;;;;13.15;53.76;100931.14;1645898;86;21756;-55
2023/05/18 02:01:34;;;;;;;10.93;5.30;;;;;;;13.16;53.84;100943.01;1645819;86;21240;-55
2023/05/18 02:04:40;;;;;;;13.53;5.42;;;;;;;13.17;53.91;100941.95;1645802;86;21385;-56
2023/05/18 02:07:48;;;;;;;13.38;5.55;;;;;;;13.16;53.94;100945.21;1617685;87;21631;-54
2023/05/18 02:10:54;;;;;;;11.78;5.67;;;;;;;13.17;53.97;100944.70;1617644;88;21658;-55
2023/05/18 02:14:00;;;;;;;9.45;5.37;;;;;;;13.18;54.00;100949.16;1617775;87;21264;-55
2023/05/18 02:17:06;;;;;;;10.95;5.97;;;;;;;13.16;54.04;100945.21;1617851;88;21781;-56
2023/05/18 02:20:17;;;;;;;10.63;5.80;;;;;;;13.16;54.05;100939.72;1617865;88;21226;-56
2023/05/18 02:23:21;;;;;;;8.73;6.03;;;;;;;13.15;54.04;100944.02;1617981;87;21304;-55
2023/05/18 02:26:28;;;;;;;11.50;5.92;;;;;;;13.15;54.14;100947.63;1617809;88;21232;-54
2023/05/18 02:29:33;;;;;;;8.93;6.17;;;;;;;13.16;54.18;100954.84;1617976;87;21253;-55
2023/05/18 02:32:41;;;;;;;12.00;6.03;;;;;;;13.19;54.26;100958.60;1617815;88;21830;-55
2023/05/18 02:35:46;;;;;;;10.55;5.58;;;;;;;13.20;54.26;100952.09;1617781;88;21265;-55
2023/05/18 02:38:53;;;;;;;11.73;6.17;;;;;;;13.21;54.26;100952.41;1618019;87;21261;-55
2023/05/18 02:42:01;;;;;;;15.58;6.28;;;;;;;13.22;54.35;100956.86;1617745;88;21621;-55
2023/05/18 02:45:08;;;;;;;12.95;6.25;;;;;;;13.25;54.42;100968.91;1617766;87;21257;-55
2023/05/18 02:48:14;;;;;;;14.10;6.50;;;;;;;13.27;54.47;100968.19;1603297;87;21252;-56
2023/05/18 02:51:20;;;;;;;13.10;6.67;;;;;;;13.31;54.49;100974.20;1617793;88;21577;-56
2023/05/18 02:54:26;;;;;;;17.25;7.50;;;;;;;13.34;54.53;100971.08;1617883;87;21288;-55
2023/05/18 02:57:35;;;;;;;11.38;7.33;;;;;;;13.38;54.56;100973.83;1617718;87;21784;-54
2023/05/18 03:00:42;;;;;;;12.78;7.05;;;;;;;13.40;54.58;100977.23;1617799;88;21221;-55
2023/05/18 03:03:51;;;;;;;12.25;6.65;;;;;;;13.43;54.58;100977.73;1617907;87;21811;-54
2023/05/18 03:07:01;;;;;;;14.20;7.12;;;;;;;13.46;54.61;100973.25;1627816;83;21283;-58
2023/05/18 03:10:10;;;;;;;12.23;7.67;;;;;;;13.52;54.63;100979.40;1647974;85;21294;-57
2023/05/18 03:13:16;;;;;;;14.75;6.85;;;;;;;13.57;54.67;100976.64;1647761;86;21255;-56
2023/05/18 03:16:27;;;;;;;14.75;8.15;;;;;;;13.62;54.74;100980.55;1647549;85;21208;-59
2023/05/18 03:19:34;;;;;;;14.38;8.40;;;;;;;13.69;54.77;100980.69;1647873;85;21848;-57
2023/05/18 03:22:41;;;;;;;12.68;7.70;;;;;;;13.77;54.81;100984.77;1647376;85;21297;-57
2023/05/18 03:25:54;;;;;;;12.37;7.75;;;;;;;13.83;54.78;100990.40;1647452;87;21732;-58
2023/05/18 03:28:55;;;;;;;12.15;8.78;;;;;;;13.90;54.83;100990.53;1647368;85;21788;-56
2023/05/18 03:32:00;;;;;;;15.38;8.65;;;;;;;13.97;54.82;100994.28;1647520;87;21252;-57
2023/05/18 03:35:07;;;;;;;10.95;8.08;;;;;;;14.03;54.86;100999.05;1647462;86;21365;-57
2023/05/18 03:38:14;;;;;;;17.12;9.10;;;;;;;14.10;54.92;100996.75;1647443;86;21239;-57
2023/05/18 03:41:21;;;;;;;17.20;9.70;;;;;;;14.18;54.99;101002.20;1647391;87;21752;-57
2023/05/18 03:44:29;;;;;;;16.85;10.70;;;;;;;14.26;55.09;101000.79;1648052;86;21243;-57
2023/05/18 03:47:36;;;;;;;16.05;9.80;;;;;;;14.38;55.13;101008.11;1647821;85;21224;-58
2023/05/18 03:50:42;;;;;;;18.48;10.88;;;;;;;14.50;55.20;101007.98;1647956;86;21199;-57
2023/05/18 03:53:50;;;;;;;21.15;10.98;;;;;;;14.60;55.21;101001.16;1648291;86;21227;-57
2023/05/18 03:56:49;;;;;;;17.25;11.10;;;;;;;14.72;55.26;100996.06;1647917;87;21220;-57
2023/05/18 03:59:42;;;;;;;18.32;11.08;;;;;;;14.84;55.30;100995.95;1647796;86;21251;-58
2023/05/18 04:02:50;;;;;;;16.77;11.33;;;;;;;14.95;55.33;100989.97;1647733;86;21196;-58
2023/05/18 04:05:57;;;;;;;17.25;11.05;;;;;;;15.06;55.31;100995.02;1647749;86;21260;-58
2023/05/18 04:09:04;;;;;;;19.12;11.63;;;;;;;15.19;55.37;100999.86;1650338;84;21219;-57
2023/05/18 04:12:12;;;;;;;22.00;11.78;;;;;;;15.32;55.38;101002.27;1649779;85;21299;-56
2023/05/18 04:15:18;;;;;;;22.07;12.45;;;;;;;15.44;55.38;101005.44;1632921;86;21791;-57
2023/05/18 04:18:28;;;;;;;17.62;12.82;;;;;;;15.56;55.36;101006.13;1649851;86;21239;-58
2023/05/18 04:21:34;;;;;;;24.90;12.28;;;;;;;15.67;55.37;101002.01;1649755;86;21272;-56
2023/05/18 04:24:44;;;;;;;20.15;12.90;;;;;;;15.81;55.42;101002.53;1650054;86;21475;-58
2023/05/18 04:27:51;;;;;;;22.82;13.20;;;;;;;15.93;55.42;101007.86;1649964;85;21207;-57
2023/05/18 04:31:00;;;;;;;18.92;13.05;;;;;;;16.07;55.38;101005.56;1649768;85;21247;-57
2023/05/18 04:34:00;;;;;;;19.55;14.23;;;;;;;16.21;55.38;101008.80;1649283;86;21780;-57
2023/05/18 04:37:01;;;;;;;20.05;13.58;;;;;;;16.34;55.37;101011.17;1629316;86;21259;-57
2023/05/18 04:40:06;;;;;;;22.10;13.98;;;;;;;16.45;55.30;101013.96;1649366;85;21508;-57
2023/05/18 04:43:11;;;;;;;23.40;13.60;;;;;;;16.58;55.25;101014.60;1667244;85;21213;-58
2023/05/18 04:46:18;;;;;;;19.73;13.25;;;;;;;16.70;55.21;101011.64;1647981;86;21227;-56
2023/05/18 04:49:27;;;;;;;23.12;13.72;;;;;;;16.82;55.17;101009.51;1678869;84;21228;-53
2023/05/18 04:52:35;;;;;;;27.15;13.28;;;;;;;16.95;55.15;101009.58;1675889;85;21749;-54
2023/05/18 04:55:42;;;;;;;25.62;13.85;;;;;;;17.08;55.08;101012.97;1687165;83;21212;-57
2023/05/18 04:58:47;;;;;;;24.40;14.50;;;;;;;17.19;54.98;101014.65;1671532;84;21255;-54
2023/05/18 05:01:54;;;;;;;22.70;14.73;;;;;;;17.32;54.91;101020.79;1674082;84;21228;-55
2023/05/18 05:05:00;;;;;;;25.88;16.42;;;;;;;17.45;54.88;101012.60;1674446;84;21287;-54
2023/05/18 05:08:06;;;;;;;21.48;14.40;;;;;;;17.60;54.88;101018.31;1677627;84;21279;-60
2023/05/18 05:11:14;;;;;;;23.50;14.45;;;;;;;17.75;54.84;101022.33;1671622;85;21209;-58
2023/05/18 05:14:21;;;;;;;22.25;16.48;;;;;;;17.88;54.76;101027.41;1636670;86;21205;-57
2023/05/18 05:17:29;;;;;;;21.68;14.18;;;;;;;18.04;54.72;101017.86;1671853;84;21204;-58
2023/05/18 05:20:35;;;;;;;44.18;15.40;;;;;;;18.17;54.61;101012.88;1670371;85;21788;-58
2023/05/18 05:23:44;;;;;;;42.48;15.50;;;;;;;18.29;54.50;101014.83;1638324;86;21227;-59
2023/05/18 05:26:50;;;;;;;33.42;15.78;;;;;;;18.40;54.38;101013.37;1670563;85;21224;-56
2023/05/18 05:29:55;;;;;;;42.95;15.35;;;;;;;18.53;54.25;101018.94;1669380;84;21263;-58
2023/05/18 05:33:02;;;;;;;35.80;16.55;;;;;;;18.67;54.21;101017.88;1636893;86;21879;-58
2023/05/18 05:36:10;;;;;;;32.90;14.90;;;;;;;18.80;54.07;101017.36;1672906;85;21801;-56
2023/05/18 05:39:20;;;;;;;19.62;15.25;;;;;;;18.94;54.00;101019.06;1671793;85;21221;-58
2023/05/18 05:42:28;;;;;;;26.48;17.23;;;;;;;19.06;53.88;101011.77;1637164;87;21236;-57
2023/05/18 05:45:37;;;;;;;29.18;15.72;;;;;;;19.21;53.76;101014.31;1681015;85;21202;-57
2023/05/18 05:48:45;;;;;;;33.15;20.30;;;;;;;19.33;53.68;101014.86;1679332;84;21219;-56
2023/05/18 05:52:06;;;;;;;31.93;19.27;;;;;;;19.46;53.54;101017.27;1663817;85;21236;-57
2023/05/18 05:55:15;;;;;;;32.05;18.12;;;;;;;19.59;53.44;101011.67;1680769;85;21748;-56
2023/05/18 05:58:22;;;;;;;27.05;17.62;;;;;;;19.70;53.33;101009.61;1673318;84;21212;-58
2023/05/18 06:01:27;;;;;;;30.57;17.90;;;;;;;19.84;53.24;101012.64;1676541;84;21209;-57
2023/05/18 06:04:33;;;;;;;27.93;14.35;;;;;;;19.97;53.16;101008.41;1638267;86;21236;-57
2023/05/18 06:07:44;;;;;;;19.92;13.95;;;;;;;20.12;53.05;101011.77;1669752;84;21224;-57
2023/05/18 06:10:50;;;;;;;20.08;14.55;;;;;;;20.27;52.95;101009.03;1640161;85;21648;-58
2023/05/18 06:13:57;;;;;;;26.23;14.80;;;;;;;20.44;52.84;101009.33;1607006;87;21669;-56
2023/05/18 06:17:02;;;;;;;21.27;15.15;;;;;;;20.54;52.63;101008.30;1667544;84;21333;-57
2023/05/18 06:20:08;;;;;;;22.98;13.85;;;;;;;20.66;52.49;101010.13;1663972;83;21235;-57
2023/05/18 06:23:14;;;;;;;26.15;15.05;;;;;;;20.78;52.32;101013.90;1666574;84;21380;-57
2023/05/18 06:26:24;;;;;;;22.90;16.80;;;;;;;20.89;52.16;101012.30;1668572;84;21272;-58
2023/05/18 06:29:33;;;;;;;18.82;14.73;;;;;;;21.02;52.00;101003.86;1627568;87;21787;-55
2023/05/18 06:32:57;;;;;;;22.32;14.85;;;;;;;21.22;51.76;101010.08;1845232;76;22748;-57
2023/05/18 06:36:05;;;;;;;22.95;13.10;;;;;;;21.24;51.51;101010.71;1767175;80;21185;-55
2023/05/18 06:39:10;;;;;;;19.82;14.10;;;;;;;21.32;51.34;101010.41;1753558;81;21742;-56
2023/05/18 06:42:18;;;;;;;19.60;14.93;;;;;;;21.44;51.14;101015.52;1779344;80;21217;-55
2023/05/18 06:45:26;;;;;;;25.40;14.87;;;;;;;21.53;50.93;101004.93;1767719;80;21177;-56
2023/05/18 06:48:37;;;;;;;24.75;14.98;;;;;;;21.61;50.75;100998.48;1759082;79;21792;-57
2023/05/18 06:51:44;;;;;;;21.30;14.07;;;;;;;21.71;50.55;100997.94;1747531;80;21212;-57
2023/05/18 06:54:51;;;;;;;19.52;14.05;;;;;;;21.81;50.37;101001.93;1705560;82;21207;-56
2023/05/18 06:57:57;;;;;;;22.27;12.88;;;;;;;21.91;50.17;101003.59;1746511;81;21177;-56
2023/05/18 07:01:05;;;;;;;17.95;13.25;;;;;;;22.02;50.02;100996.40;1769599;80;21186;-56
2023/05/18 07:04:12;;;;;;;19.25;13.48;;;;;;;22.11;49.80;100990.26;1770674;80;21311;-55
2023/05/18 07:07:19;;;;;;;15.45;12.35;;;;;;;22.21;49.58;100993.30;1751784;79;21777;-56
2023/05/18 07:10:25;;;;;;;21.75;12.85;;;;;;;22.30;49.35;100991.58;1736828;81;21186;-56
2023/05/18 07:13:31;;;;;;;19.00;13.25;;;;;;;22.41;49.22;100991.62;1752884;80;21209;-56
2023/05/18 07:16:39;;;;;;;17.42;12.37;;;;;;;22.51;48.99;100990.52;1751605;80;21503;-56
2023/05/18 07:19:45;;;;;;;15.25;12.13;;;;;;;22.60;48.75;100998.02;1766840;80;21181;-58
2023/05/18 07:22:54;;;;;;;15.28;11.80;;;;;;;22.70;48.51;101001.94;1749234;81;21217;-57
2023/05/18 07:26:00;;;;;;;19.02;12.20;;;;;;;22.80;48.26;100999.95;1739360;81;21189;-56
2023/05/18 07:29:07;;;;;;;17.82;11.68;;;;;;;22.90;48.07;100993.20;1746465;81;21204;-56
2023/05/18 07:32:12;;;;;;;14.55;11.65;;;;;;;23.00;47.81;101002.70;1772048;80;21609;-57
2023/05/18 07:35:19;;;;;;;19.07;12.53;;;;;;;23.11;47.63;100995.41;1762215;81;21189;-57
2023/05/18 07:38:25;;;;;;;19.35;13.35;;;;;;;23.24;47.45;100997.97;1756767;81;21636;-57
2023/05/18 07:41:31;;;;;;;19.25;11.73;;;;;;;23.33;47.15;100989.54;1751637;82;21176;-57
2023/05/18 07:44:35;;;;;;;18.50;12.18;;;;;;;23.40;46.86;100998.66;1695225;84;21275;-57
2023/05/18 07:47:42;;;;;;;15.10;12.23;;;;;;;23.46;46.54;100992.95;1702784;82;21752;-56
2023/05/18 07:50:50;;;;;;;19.10;13.75;;;;;;;23.52;46.25;100995.29;1724846;83;21710;-56
2023/05/18 07:53:56;;;;;;;16.95;12.20;;;;;;;23.60;46.05;100986.53;1686051;83;21641;-58
2023/05/18 07:57:03;;;;;;;17.02;12.18;;;;;;;23.70;45.85;100985.36;1763554;80;21201;-57
2023/05/18 08:00:09;;;;;;;20.55;11.53;;;;;;;23.79;45.55;100982.47;1776183;79;21868;-61
2023/05/18 08:03:14;;;;;;;18.25;11.97;;;;;;;23.85;45.26;100991.26;1774346;79;21697;-61
2023/05/18 08:06:21;;;;;;;16.07;11.38;;;;;;;23.94;45.00;100991.20;1768097;80;21292;-61
2023/05/18 08:09:28;;;;;;;15.78;11.00;;;;;;;24.01;44.75;100993.31;1770113;80;21177;-63
2023/05/18 08:12:39;;;;;;;18.32;11.03;;;;;;;24.10;44.57;100990.98;1771073;79;21264;-62
2023/05/18 08:15:46;;;;;;;27.05;12.37;;;;;;;24.18;44.29;100993.37;1770621;79;21454;-61
2023/05/18 08:18:53;;;;;;;14.07;12.15;;;;;;;24.24;44.04;100993.23;1748834;79;21295;-62
2023/05/18 08:22:00;;;;;;;19.20;12.18;;;;;;;24.33;43.79;100987.52;1751734;79;21349;-60
2023/05/18 08:25:06;;;;;;;23.73;12.15;;;;;;;24.42;43.54;100984.60;1750468;79;21300;-62
2023/05/18 08:28:12;;;;;;;24.47;12.78;;;;;;;24.54;43.38;100992.41;1737917;81;21436;-63
2023/05/18 08:31:21;;;;;;;18.45;12.33;;;;;;;24.68;43.18;100983.15;1741708;81;21766;-62
2023/05/18 08:34:28;;;;;;;22.15;12.13;;;;;;;24.77;42.93;100980.21;1764018;79;21196;-61
2023/05/18 08:37:36;;;;;;;15.50;11.73;;;;;;;24.81;42.65;100971.08;1755795;80;21257;-62
2023/05/18 08:40:55;;;;;;;17.85;11.48;;;;;;;24.94;42.45;100974.91;1729876;82;21734;-61
2023/05/18 08:44:07;;;;;;;18.57;12.07;;;;;;;25.08;42.20;100967.02;1739644;80;21264;-60
2023/05/18 08:47:16;;;;;;;15.93;11.22;;;;;;;25.22;41.93;100968.89;1703641;82;21188;-61
2023/05/18 08:50:21;;;;;;;15.58;11.20;;;;;;;25.22;41.55;100963.29;1739051;81;21233;-62
2023/05/18 08:53:27;;;;;;;23.55;11.73;;;;;;;25.23;41.21;100955.20;1765346;80;21876;-62
2023/05/18 08:56:36;;;;;;;20.37;12.58;;;;;;;25.38;41.11;100949.83;1760098;80;21734;-63
2023/05/18 08:59:46;;;;;;;24.12;12.43;;;;;;;25.55;40.82;100954.83;1766797;80;21287;-63
2023/05/18 09:02:53;;;;;;;19.57;12.90;;;;;;;25.73;40.63;100952.56;1758424;79;21184;-60
2023/05/18 09:06:00;;;;;;;16.17;11.78;;;;;;;25.98;40.45;100952.01;1736395;82;21205;-61
2023/05/18 09:09:08;;;;;;;17.80;11.83;;;;;;;26.22;40.11;100946.42;1764075;79;21209;-62
2023/05/18 09:12:13;;;;;;;16.60;11.10;;;;;;;26.26;39.70;100948.44;1768842;80;21257;-63
2023/05/18 09:15:23;;;;;;;15.75;11.38;;;;;;;26.49;39.53;100952.88;1768829;79;21248;-62
2023/05/18 09:18:30;;;;;;;19.50;12.03;;;;;;;26.72;39.24;100941.31;1765265;81;21201;-61
2023/05/18 09:21:38;;;;;;;18.77;10.80;;;;;;;26.90;38.93;100940.05;1765995;80;21153;-61
2023/05/18 09:24:44;;;;;;;13.00;10.63;;;;;;;27.07;38.67;100937.38;1755931;81;21235;-61
2023/05/18 09:27:51;;;;;;;14.00;10.53;;;;;;;27.30;38.51;100929.13;1777380;80;21808;-60
2023/05/18 09:30:58;;;;;;;13.62;10.43;;;;;;;27.54;38.28;100929.80;1765265;79;21178;-57
2023/05/18 09:34:06;;;;;;;12.85;10.88;;;;;;;27.79;37.95;100924.31;1763535;79;21725;-61
2023/05/18 09:37:13;;;;;;;15.05;10.82;;;;;;;27.98;37.55;100930.86;1748463;80;21367;-60
2023/05/18 09:40:13;;;;;;;14.53;11.50;;;;;;;28.13;37.29;100930.92;1740218;81;21774;-60
2023/05/18 09:43:06;;;;;;;12.85;10.43;;;;;;;28.26;36.88;100924.76;1755167;80;21728;-58
2023/05/18 09:45:54;;;;;;;14.47;10.53;;;;;;;28.38;36.62;100918.28;1680579;82;21317;-60
2023/05/18 09:48:53;;;;;;;16.62;10.30;;;;;;;28.52;36.32;100919.45;1740443;82;21290;-58
2023/05/18 09:51:40;;;;;;;14.23;10.82;;;;;;;28.67;36.11;100921.70;1740511;82;21193;-60
2023/05/18 09:54:33;;;;;;;18.32;10.93;;;;;;;28.85;35.88;100916.92;1740475;82;21859;-60
2023/05/18 09:57:39;;;;;;;16.37;10.35;;;;;;;29.00;35.60;100921.11;1771790;79;21288;-60
2023/05/18 10:00:55;;;;;;;13.88;10.88;;;;;;;28.76;35.00;100913.54;1751381;79;21359;-56
2023/05/18 10:04:02;;;;;;;14.78;10.82;;;;;;;28.52;34.68;100909.59;1761089;80;21217;-59
2023/05/18 10:07:02;;;;;;;14.45;12.00;;;;;;;28.31;34.36;100912.92;1743345;80;21173;-58
2023/05/18 10:09:58;;;;;;;16.23;11.50;;;;;;;28.14;34.05;100907.25;1765024;80;21427;-60
2023/05/18 10:12:44;;;;;;;13.45;10.48;;;;;;;28.06;33.99;100897.94;1721700;81;21201;-60
2023/05/18 10:15:37;;;;;;;14.25;10.50;;;;;;;27.95;33.84;100904.67;1750072;80;21244;-55
2023/05/18 10:18:44;;;;;;;13.75;10.18;;;;;;;27.75;33.62;100890.79;1750283;80;21268;-59
2023/05/18 10:21:49;;;;;;;17.23;10.98;;;;;;;27.69;33.45;100878.38;1749310;79;21770;-57
2023/05/18 10:24:57;;;;;;;15.18;10.90;;;;;;;27.49;33.30;100887.61;1739789;82;21220;-56
2023/05/18 10:28:04;;;;;;;21.17;11.45;;;;;;;27.63;33.38;100885.97;1740454;81;21370;-58
2023/05/18 10:31:09;;;;;;;27.70;11.10;;;;;;;27.95;33.44;100890.59;1758643;80;21193;-58
2023/05/18 10:34:17;;;;;;;20.02;10.70;;;;;;;28.16;33.24;100888.97;1763281;79;21778;-55
2023/05/18 10:37:25;;;;;;;13.08;10.15;;;;;;;28.35;33.17;100889.27;1765893;81;21220;-54
2023/05/18 10:40:31;;;;;;;23.05;10.68;;;;;;;28.61;33.02;100889.02;1760068;81;21758;-52
2023/05/18 10:43:52;;;;;;;11.30;9.40;;;;;;;28.80;32.80;100881.68;1765160;80;21209;-54
2023/05/18 10:47:00;;;;;;;12.35;9.23;;;;;;;28.97;32.48;100878.56;1768203;81;21725;-56
2023/05/18 10:50:07;;;;;;;10.00;8.95;;;;;;;29.02;32.17;100868.66;1749678;81;21753;-54
2023/05/18 10:53:12;;;;;;;15.95;10.15;;;;;;;29.06;31.93;100862.75;1766170;80;21526;-51
2023/05/18 10:56:18;;;;;;;13.80;9.05;;;;;;;29.06;31.73;100862.23;1771162;79;21809;-50
2023/05/18 10:59:23;;;;;;;11.35;8.98;;;;;;;29.16;31.60;100861.36;1768831;81;21256;-56
2023/05/18 11:02:29;;;;;;;12.58;8.83;;;;;;;29.36;31.54;100850.55;1768773;80;21240;-55
2023/05/18 11:05:35;;;;;;;10.93;8.90;;;;;;;29.62;31.44;100854.37;1769569;81;21229;-55
2023/05/18 11:08:42;;;;;;;11.35;8.25;;;;;;;29.78;31.13;100850.95;1769486;81;21213;-56
2023/05/18 11:12:02;;;;;;;17.57;8.45;;;;;;;29.78;30.77;100847.55;1760784;81;21245;-54
2023/05/18 11:15:09;;;;;;;20.20;9.45;;;;;;;29.51;30.21;100851.31;1756736;79;21213;-57
2023/05/18 11:18:22;;;;;;;12.28;8.28;;;;;;;29.14;29.94;100846.69;1763951;80;21189;-55
2023/05/18 11:21:41;;;;;;;11.75;9.25;;;;;;;29.14;29.94;100846.69;1781323;80;21296;-57
2023/05/18 11:24:48;;;;;;;12.80;9.00;;;;;;;29.00;29.71;100851.20;1766262;79;21201;-55
2023/05/18 11:28:00;;;;;;;12.30;8.55;;;;;;;28.88;29.69;100856.28;1764306;79;21705;-56
2023/05/18 11:31:05;;;;;;;13.22;9.35;;;;;;;29.01;29.73;100848.66;1760572;80;21173;-54
2023/05/18 11:34:15;;;;;;;11.70;9.38;;;;;;;29.14;29.63;100848.92;1743716;79;21232;-55
2023/05/18 11:37:26;;;;;;;15.43;9.03;;;;;;;29.40;29.71;100851.09;1756470;80;21224;-54
2023/05/18 11:40:56;;;;;;;10.93;9.50;;;;;;;29.50;29.20;100852.46;1764085;80;21452;-54
2023/05/18 11:44:22;;;;;;;13.15;9.65;;;;;;;29.50;29.20;100852.46;1759269;80;21774;-53
2023/05/18 11:47:30;;;;;;;11.05;9.50;;;;;;;29.68;29.34;100845.35;1759572;81;21215;-53
2023/05/18 11:50:37;;;;;;;11.18;9.33;;;;;;;29.97;29.33;100840.08;1767733;79;21632;-54
2023/05/18 11:53:42;;;;;;;14.45;8.90;;;;;;;30.20;28.66;100833.72;1766113;80;21292;-54
2023/05/18 11:56:49;;;;;;;11.08;8.58;;;;;;;30.20;28.66;100833.72;1677261;84;21228;-56
2023/05/18 11:59:56;;;;;;;12.50;8.53;;;;;;;30.21;28.79;100827.52;1704463;83;21539;-54
2023/05/18 12:03:06;;;;;;;10.05;7.83;;;;;;;30.21;28.79;100827.52;1696698;83;21264;-54
2023/05/18 12:06:12;;;;;;;14.43;11.57;;;;;;;30.37;28.40;100827.10;1750717;80;21244;-53
2023/05/18 12:09:18;;;;;;;16.97;9.40;;;;;;;30.54;28.34;100823.86;1763153;80;21808;-55
2023/05/18 12:12:24;;;;;;;13.15;8.18;;;;;;;30.72;28.09;100817.45;1752015;80;21193;-53
2023/05/18 12:15:31;;;;;;;15.30;9.05;;;;;;;30.68;27.78;100826.27;1738275;81;21196;-53
2023/05/18 12:18:40;;;;;;;16.07;9.18;;;;;;;30.49;27.48;100831.79;1756013;79;21213;-53
2023/05/18 12:21:47;;;;;;;15.30;7.97;;;;;;;30.13;27.16;100826.13;1750199;79;21197;-54
2023/05/18 12:24:58;;;;;;;13.15;8.03;;;;;;;29.71;26.84;100827.28;1699030;82;21220;-54
2023/05/18 12:28:03;;;;;;;12.60;8.38;;;;;;;29.06;26.64;100824.67;1690093;82;21788;-56
2023/05/18 12:31:09;;;;;;;11.22;7.25;;;;;;;28.81;26.79;100829.80;1699479;82;21872;-55
2023/05/18 12:34:16;;;;;;;12.85;8.33;;;;;;;28.76;26.80;100836.03;1702522;84;21231;-55
2023/05/18 12:37:23;;;;;;;10.78;8.38;;;;;;;28.64;26.86;100823.64;1720817;82;21208;-54
2023/05/18 12:40:31;;;;;;;10.03;7.90;;;;;;;28.64;26.86;100823.64;1703880;84;21203;-56
2023/05/18 12:43:42;;;;;;;13.55;9.30;;;;;;;28.58;26.56;100827.59;1701292;83;21267;-55
2023/05/18 12:46:52;;;;;;;13.72;9.00;;;;;;;28.54;26.63;100824.22;1696096;84;21205;-54
2023/05/18 12:49:58;;;;;;;12.88;8.48;;;;;;;28.63;26.68;100817.73;1668059;83;21232;-55
2023/05/18 12:53:04;;;;;;;11.50;7.92;;;;;;;28.87;26.80;100816.55;1733841;81;21227;-54
2023/05/18 12:56:17;;;;;;;14.58;8.58;;;;;;;29.11;26.81;100809.19;1718992;83;21241;-54
2023/05/18 12:59:32;;;;;;;10.43;7.97;;;;;;;29.35;26.90;100806.55;1717051;83;22125;-55
2023/05/18 13:02:46;;;;;;;13.15;9.58;;;;;;;29.58;26.88;100806.70;1702469;83;21226;-60
2023/05/18 13:05:54;;;;;;;12.78;7.72;;;;;;;29.60;26.67;100810.09;1709569;83;21791;-54
2023/05/18 13:09:01;;;;;;;8.43;7.15;;;;;;;29.39;26.35;100816.11;1693186;83;21209;-55
2023/05/18 13:12:09;;;;;;;10.82;8.23;;;;;;;28.96;26.04;100803.00;1728446;82;21615;-56
2023/05/18 13:15:28;;;;;;;11.68;7.90;;;;;;;28.66;26.02;100814.34;1703345;83;22094;-54
2023/05/18 13:18:35;;;;;;;15.95;8.10;;;;;;;28.55;26.09;100809.84;1706794;83;21202;-53
2023/05/18 13:21:42;;;;;;;18.48;8.13;;;;;;;28.48;26.06;100806.46;1710439;82;21218;-58
2023/05/18 13:24:48;;;;;;;10.20;8.38;;;;;;;28.63;26.22;100805.60;1688384;84;21739;-56
2023/05/18 13:27:55;;;;;;;10.93;7.72;;;;;;;28.85;26.22;100802.75;1695265;82;21225;-55
2023/05/18 13:30:59;;;;;;;13.30;7.35;;;;;;;28.88;26.04;100799.35;1699164;83;21209;-54
2023/05/18 13:34:09;;;;;;;8.83;7.53;;;;;;;28.70;25.93;100806.99;1696158;84;21237;-55
2023/05/18 13:37:14;;;;;;;9.30;7.50;;;;;;;28.60;25.90;100808.44;1704550;83;21281;-55
2023/05/18 13:40:24;;;;;;;11.57;8.33;;;;;;;28.43;25.71;100801.38;1719003;80;21253;-53
2023/05/18 13:43:30;;;;;;;24.60;8.10;;;;;;;28.24;25.65;100799.67;1717657;82;21586;-54
2023/05/18 13:46:37;;;;;;;8.73;7.42;;;;;;;28.25;25.70;100799.98;1725118;83;21280;-55
2023/05/18 13:49:42;;;;;;;13.72;8.05;;;;;;;28.54;25.79;100789.83;1717224;83;21249;-55
2023/05/18 13:52:49;;;;;;;10.18;7.90;;;;;;;28.83;25.82;100788.64;1723910;83;21197;-55
2023/05/18 13:55:57;;;;;;;10.75;7.70;;;;;;;28.93;25.68;100784.39;1692441;83;21892;-55
2023/05/18 13:59:02;;;;;;;13.58;8.18;;;;;;;28.92;25.61;100789.77;1715067;83;21213;-56
2023/05/18 14:02:09;;;;;;;12.70;7.75;;;;;;;28.83;25.58;100797.95;1706264;83;21550;-58
2023/05/18 14:05:16;;;;;;;10.23;7.65;;;;;;;28.84;25.50;100787.53;1712325;82;21174;-56
2023/05/18 14:08:23;;;;;;;12.13;8.25;;;;;;;28.80;25.43;100792.03;1700223;83;21289;-55
2023/05/18 14:11:33;;;;;;;12.65;7.95;;;;;;;28.61;25.40;100782.49;1723478;83;21201;-57
2023/05/18 14:14:41;;;;;;;18.85;7.92;;;;;;;28.58;25.46;100790.11;1716245;83;21576;-57
2023/05/18 14:17:49;;;;;;;14.28;7.42;;;;;;;28.66;25.61;100783.89;1724080;83;21264;-56